UKWW/VIN METAR and TAF weather

Enter ICAO airport designator
Station Type Date Time Source
UKWW METAR 2020/09/22 17:00 UTC NOAA

UKWW 221700Z 16002MPS CAVOK 19/04 Q1019 R13/0///65 NOSIG


Station Type Date Time Source
UKWW Decoded METAR 2020/09/22 17:00 UTC NOAA

Station name not available
Sep 22, 2020 - 01:00 PM EDT / 2020.09.22 1700 UTC
Wind: from the SSE (160 degrees) at 4 MPH (4 KT):0
Visibility: greater than 7 mile(s):0
Temperature: 66 F (19 C)
Dew Point: 39 F (4 C)
Relative Humidity: 37%
Pressure (altimeter): 30.09 in. Hg (1019 hPa)
ob: UKWW 221700Z 16002MPS CAVOK 19/04 Q1019 R13/0///65 NOSIG
cycle: 17

Station Type Date Time Source
UKWW TAF 2010/03/21 10:45 UTC NOAA

TAF UKWW 211045Z 2112/2212 24005G10MPS 9999 SCT020 BKN070
TEMPO 2115/2207 1400 -SHRA BR SCT004 BKN007CB
FM220700 34007G12MPS 9999 SCT015 BKN100 TX11/2112Z TN01/2204Z

Example: see airport list